Time;durP1;ratioP1;P1;durP2;ratioP2;P2;SDS_P1;SDS_P2;PMS_P1;PMS_P2;Temp;Humidity;BMP_temperature;BMP_pressure;BME280_temperature;BME280_humidity;BME280_pressure;Samples;Min_cycle;Max_cycle;Signal;HPM_P1;HPM_P2
2023/03/02 00:02:17;;;;;;;17.63;9.40;;;1.10;73.80;;;;;;5047312;28;20056;-64
2023/03/02 00:04:51;;;;;;;16.60;8.95;;;1.10;73.80;;;;;;5056590;28;20127;-66
2023/03/02 00:07:25;;;;;;;18.27;9.05;;;1.10;73.90;;;;;;5056551;28;20056;-64
2023/03/02 00:09:54;;;;;;;17.58;8.40;;;1.00;74.00;;;;;;5056818;28;20045;-65
2023/03/02 00:12:21;;;;;;;19.60;9.40;;;1.10;73.80;;;;;;5058170;28;20036;-64
2023/03/02 00:14:48;;;;;;;17.38;10.05;;;1.20;73.70;;;;;;5054740;28;20065;-64
2023/03/02 00:17:15;;;;;;;19.98;10.23;;;1.20;73.50;;;;;;5045750;28;20056;-64
2023/03/02 00:19:43;;;;;;;19.70;9.23;;;1.20;73.50;;;;;;5050507;28;20048;-65
2023/03/02 00:22:10;;;;;;;18.27;9.75;;;1.20;73.40;;;;;;5055727;28;20095;-64
2023/03/02 00:24:40;;;;;;;20.90;10.82;;;1.20;73.30;;;;;;5058025;28;20045;-65
2023/03/02 00:27:08;;;;;;;20.50;10.83;;;1.20;73.30;;;;;;5055409;28;20075;-65
2023/03/02 00:29:35;;;;;;;22.55;10.57;;;1.20;73.10;;;;;;5057790;28;20045;-65
2023/03/02 00:32:03;;;;;;;15.95;9.50;;;1.20;73.10;;;;;;5051403;28;20052;-65
2023/03/02 00:34:31;;;;;;;16.63;9.02;;;1.20;73.10;;;;;;5057098;28;20128;-64
2023/03/02 00:36:58;;;;;;;17.90;9.23;;;1.20;72.90;;;;;;5056674;28;20407;-66
2023/03/02 00:39:25;;;;;;;19.55;10.15;;;1.20;72.80;;;;;;5034631;28;20064;-65
2023/03/02 00:41:52;;;;;;;17.75;9.57;;;1.20;72.80;;;;;;5041545;28;20052;-64
2023/03/02 00:44:28;;;;;;;20.00;9.43;;;1.20;72.70;;;;;;5041297;28;20103;-64
2023/03/02 00:46:55;;;;;;;16.38;9.07;;;1.20;72.70;;;;;;5042428;28;20125;-65
2023/03/02 00:49:23;;;;;;;21.23;9.93;;;1.30;72.50;;;;;;5050395;28;20526;-65
2023/03/02 00:51:50;;;;;;;15.60;8.57;;;1.20;72.50;;;;;;5045704;28;20041;-66
2023/03/02 00:54:19;;;;;;;17.30;9.43;;;1.20;72.60;;;;;;5051287;28;20061;-65
2023/03/02 00:56:48;;;;;;;17.58;9.15;;;1.20;72.60;;;;;;5052671;28;20047;-66
2023/03/02 00:59:25;;;;;;;18.55;9.20;;;1.20;72.30;;;;;;5054407;28;20044;-65
2023/03/02 01:02:01;;;;;;;16.00;8.73;;;1.20;72.20;;;;;;5039771;28;20496;-65
2023/03/02 01:04:34;;;;;;;15.75;8.38;;;1.20;72.30;;;;;;5054717;28;20049;-65
2023/03/02 01:07:03;;;;;;;17.27;8.88;;;1.20;72.10;;;;;;5051610;28;20049;-65
2023/03/02 01:09:31;;;;;;;16.58;8.45;;;1.20;72.20;;;;;;5062119;28;20397;-64
2023/03/02 01:11:58;;;;;;;17.08;8.98;;;1.20;72.20;;;;;;5037345;28;20076;-64
2023/03/02 01:14:26;;;;;;;19.25;9.18;;;1.20;72.20;;;;;;5039714;28;20503;-65
2023/03/02 01:16:53;;;;;;;18.05;9.55;;;1.20;72.10;;;;;;5051032;28;20049;-65
2023/03/02 01:19:24;;;;;;;19.60;9.25;;;1.20;72.20;;;;;;5053266;28;20049;-65
2023/03/02 01:21:51;;;;;;;16.35;8.77;;;1.20;72.10;;;;;;5053040;28;20056;-65
2023/03/02 01:24:18;;;;;;;19.17;9.13;;;1.20;72.20;;;;;;5053523;28;20132;-65
2023/03/02 01:26:45;;;;;;;15.27;8.63;;;1.20;72.10;;;;;;5051672;28;20052;-64
2023/03/02 01:29:12;;;;;;;17.52;9.40;;;1.20;72.10;;;;;;5056000;28;20056;-64
2023/03/02 01:31:39;;;;;;;19.70;9.27;;;1.20;72.00;;;;;;5037548;28;20059;-64
2023/03/02 01:34:06;;;;;;;19.27;8.65;;;1.20;72.00;;;;;;5047733;28;20045;-65
2023/03/02 01:36:35;;;;;;;19.52;8.77;;;1.10;72.00;;;;;;5033887;28;20059;-64
2023/03/02 01:39:03;;;;;;;20.48;8.95;;;1.20;71.90;;;;;;5046896;28;20033;-66
2023/03/02 01:41:31;;;;;;;17.88;8.95;;;1.20;71.90;;;;;;5054061;28;20043;-65
2023/03/02 01:43:58;;;;;;;17.85;8.73;;;1.20;71.60;;;;;;5035946;28;20048;-63
2023/03/02 01:46:27;;;;;;;17.15;8.98;;;1.20;71.70;;;;;;5051789;28;20045;-66
2023/03/02 01:49:00;;;;;;;16.73;8.70;;;1.20;71.70;;;;;;5038554;28;20044;-65
2023/03/02 01:51:45;;;;;;;16.75;9.05;;;1.20;71.60;;;;;;5031882;28;20040;-64
2023/03/02 01:54:21;;;;;;;15.95;8.45;;;1.20;71.50;;;;;;5051845;28;20764;-65
2023/03/02 01:56:52;;;;;;;17.83;8.90;;;1.20;71.50;;;;;;5036789;28;20125;-66
2023/03/02 01:59:22;;;;;;;16.95;9.15;;;1.20;71.60;;;;;;5066647;28;20119;-65
2023/03/02 02:01:52;;;;;;;17.30;9.02;;;1.30;71.20;;;;;;5037164;28;20496;-65
2023/03/02 02:04:21;;;;;;;16.60;9.13;;;1.20;71.20;;;;;;5038651;28;20051;-66
2023/03/02 02:06:54;;;;;;;16.65;8.35;;;1.20;71.40;;;;;;5052399;28;20045;-66
2023/03/02 02:09:25;;;;;;;19.17;8.88;;;1.20;71.50;;;;;;5048253;28;20068;-65
2023/03/02 02:11:52;;;;;;;19.17;10.45;;;1.20;71.50;;;;;;5036524;28;20435;-66
2023/03/02 02:14:19;;;;;;;18.33;9.27;;;1.20;71.50;;;;;;5048605;28;20048;-64
2023/03/02 02:16:46;;;;;;;19.95;9.13;;;1.10;71.80;;;;;;5043378;28;20507;-66
2023/03/02 02:19:26;;;;;;;20.15;9.65;;;1.10;71.90;;;;;;5054112;28;20056;-64
2023/03/02 02:21:54;;;;;;;16.35;8.10;;;1.10;71.90;;;;;;5049521;28;20056;-65
2023/03/02 02:24:24;;;;;;;16.38;9.00;;;1.10;71.80;;;;;;5068334;28;20403;-65
2023/03/02 02:26:55;;;;;;;19.25;8.63;;;1.00;72.10;;;;;;5050997;28;20052;-65
2023/03/02 02:29:29;;;;;;;18.65;8.63;;;1.00;72.10;;;;;;5050359;28;20059;-64
2023/03/02 02:32:09;;;;;;;17.30;8.82;;;1.00;72.20;;;;;;5040818;28;20076;-64
2023/03/02 02:34:39;;;;;;;16.75;9.10;;;1.00;72.10;;;;;;5047703;28;20053;-65
2023/03/02 02:37:07;;;;;;;;;;;1.00;72.20;;;;;;5051435;28;20044;-64
2023/03/02 02:39:39;;;;;;;13.05;7.55;;;1.00;72.20;;;;;;5051200;28;19948;-65
2023/03/02 02:42:13;;;;;;;15.35;8.45;;;0.90;72.30;;;;;;5053452;28;20053;-65
2023/03/02 02:44:40;;;;;;;18.20;7.93;;;0.90;72.30;;;;;;5040895;28;20045;-64
2023/03/02 02:47:16;;;;;;;18.75;9.00;;;1.00;72.20;;;;;;5051873;28;20044;-66
2023/03/02 02:49:43;;;;;;;16.58;8.10;;;0.90;72.30;;;;;;5052803;28;20057;-64
2023/03/02 02:52:14;;;;;;;17.75;8.10;;;0.90;72.40;;;;;;5051825;28;20048;-64
2023/03/02 02:54:44;;;;;;;16.50;8.10;;;1.00;72.20;;;;;;5047125;28;20071;-64
2023/03/02 02:57:16;;;;;;;16.75;8.20;;;0.90;72.50;;;;;;5053127;28;20454;-65
2023/03/02 02:59:47;;;;;;;17.38;8.32;;;0.90;72.50;;;;;;5042447;28;20452;-66
2023/03/02 03:02:18;;;;;;;18.58;9.07;;;0.90;72.60;;;;;;5050450;28;20144;-61
2023/03/02 03:04:46;;;;;;;19.55;9.07;;;0.90;72.50;;;;;;5051385;28;20115;-62
2023/03/02 03:07:21;;;;;;;18.60;9.38;;;0.90;72.70;;;;;;5055388;28;20139;-62
2023/03/02 03:09:55;;;;;;;17.40;8.32;;;0.90;72.60;;;;;;5037895;28;20052;-62
2023/03/02 03:12:25;;;;;;;16.15;8.55;;;0.80;72.80;;;;;;5039535;28;20540;-63
2023/03/02 03:14:54;;;;;;;17.50;9.13;;;0.90;72.80;;;;;;5048364;28;20658;-62
2023/03/02 03:17:21;;;;;;;18.27;8.95;;;0.80;72.80;;;;;;5048421;28;20085;-62
2023/03/02 03:19:53;;;;;;;16.95;8.45;;;0.80;73.00;;;;;;5042277;28;20072;-63
2023/03/02 03:22:20;;;;;;;15.57;8.27;;;0.80;72.90;;;;;;5069193;28;20463;-62
2023/03/02 03:24:49;;;;;;;16.73;8.90;;;0.80;73.00;;;;;;5041036;28;20057;-62
2023/03/02 03:27:18;;;;;;;19.90;9.25;;;0.80;73.00;;;;;;5040049;28;20098;-62
2023/03/02 03:29:47;;;;;;;16.52;8.27;;;0.80;72.90;;;;;;5041447;28;20049;-63
2023/03/02 03:32:16;;;;;;;19.58;9.25;;;0.80;73.00;;;;;;5066003;28;20069;-62
2023/03/02 03:34:43;;;;;;;17.08;9.00;;;0.70;73.00;;;;;;5038192;28;20053;-63
2023/03/02 03:37:19;;;;;;;17.60;9.27;;;0.80;72.90;;;;;;5055980;28;20072;-62
2023/03/02 03:39:47;;;;;;;20.33;8.60;;;0.80;72.90;;;;;;5038240;28;20061;-63
2023/03/02 03:42:15;;;;;;;17.65;9.02;;;0.70;73.00;;;;;;5055707;28;20131;-61
2023/03/02 03:44:42;;;;;;;16.35;8.57;;;0.70;73.00;;;;;;5054883;28;20602;-63
2023/03/02 03:47:11;;;;;;;17.23;8.52;;;0.70;73.00;;;;;;5040139;28;20050;-63
2023/03/02 03:49:38;;;;;;;16.65;8.45;;;0.80;73.00;;;;;;5040172;28;20040;-62
2023/03/02 03:52:06;;;;;;;15.18;8.13;;;0.80;72.80;;;;;;5040757;28;20044;-62
2023/03/02 03:54:33;;;;;;;15.23;8.35;;;0.80;72.70;;;;;;5037260;28;20072;-62
2023/03/02 03:57:00;;;;;;;16.27;8.35;;;0.80;72.60;;;;;;5051856;28;20048;-63
2023/03/02 03:59:33;;;;;;;15.77;8.02;;;0.90;72.50;;;;;;5038979;28;20059;-62
2023/03/02 04:02:03;;;;;;;16.40;8.23;;;0.80;72.50;;;;;;5037564;28;20053;-62
2023/03/02 04:04:36;;;;;;;17.73;7.95;;;0.80;72.60;;;;;;5069186;28;20071;-63
2023/03/02 04:07:07;;;;;;;15.73;8.48;;;0.80;72.50;;;;;;5039194;28;20099;-61
2023/03/02 04:09:38;;;;;;;16.08;8.18;;;0.80;72.60;;;;;;5053407;28;20068;-61
2023/03/02 04:12:07;;;;;;;17.08;8.30;;;0.70;72.80;;;;;;5056074;28;20045;-61
2023/03/02 04:14:34;;;;;;;16.80;7.70;;;0.80;72.90;;;;;;5049907;28;20049;-62
2023/03/02 04:17:04;;;;;;;17.27;8.73;;;0.80;72.70;;;;;;5054586;28;20472;-62
2023/03/02 04:19:34;;;;;;;;;;;0.80;72.70;;;;;;5045651;28;20047;-62
2023/03/02 04:22:08;;;;;;;15.43;8.25;;;0.80;72.60;;;;;;5037187;28;19940;-63
2023/03/02 04:24:35;;;;;;;17.67;8.85;;;0.80;72.60;;;;;;5050438;28;20305;-62
2023/03/02 04:27:04;;;;;;;16.73;7.63;;;0.70;72.70;;;;;;5035618;28;20067;-61
2023/03/02 04:29:35;;;;;;;17.42;8.98;;;0.70;72.90;;;;;;5055126;28;20373;-62
2023/03/02 04:32:06;;;;;;;20.45;8.60;;;0.80;72.80;;;;;;5051288;28;20099;-62
2023/03/02 04:34:34;;;;;;;15.32;7.82;;;0.80;72.60;;;;;;5049091;28;20423;-62
2023/03/02 04:37:02;;;;;;;17.63;9.05;;;0.80;72.50;;;;;;5050304;28;20041;-63
2023/03/02 04:39:30;;;;;;;16.95;8.60;;;0.80;72.30;;;;;;5036569;28;20045;-61
2023/03/02 04:41:57;;;;;;;17.25;8.75;;;0.80;72.60;;;;;;5047389;28;20049;-63
2023/03/02 04:44:26;;;;;;;13.88;7.85;;;0.70;72.70;;;;;;5042168;28;20056;-62
2023/03/02 04:46:57;;;;;;;17.08;8.23;;;0.70;72.60;;;;;;5050997;28;20047;-62
2023/03/02 04:49:24;;;;;;;15.68;7.68;;;0.80;72.60;;;;;;5032608;28;20056;-62
2023/03/02 04:51:51;;;;;;;18.73;7.85;;;0.80;72.50;;;;;;5047630;28;20052;-62
2023/03/02 04:54:20;;;;;;;18.60;8.77;;;0.80;72.50;;;;;;5049201;28;20080;-61
2023/03/02 04:56:50;;;;;;;15.85;7.95;;;0.80;72.30;;;;;;5050425;28;20049;-64
2023/03/02 04:59:18;;;;;;;15.03;8.20;;;0.80;72.40;;;;;;5050510;28;20064;-61
2023/03/02 05:01:46;;;;;;;16.45;8.65;;;0.70;72.60;;;;;;5054487;28;20119;-65
2023/03/02 05:04:13;;;;;;;16.67;7.95;;;0.80;72.50;;;;;;5048652;28;20132;-64
2023/03/02 05:06:40;;;;;;;14.40;7.82;;;0.70;72.70;;;;;;5048393;28;20104;-65
2023/03/02 05:09:07;;;;;;;17.08;7.93;;;0.70;72.80;;;;;;5052706;28;20047;-63
2023/03/02 05:11:34;;;;;;;16.02;8.57;;;0.70;72.90;;;;;;5047037;28;20045;-65
2023/03/02 05:14:05;;;;;;;17.48;8.73;;;0.70;73.10;;;;;;5047225;28;20127;-65
2023/03/02 05:16:34;;;;;;;16.88;8.00;;;0.70;73.10;;;;;;5049381;28;20041;-65
2023/03/02 05:19:03;;;;;;;15.98;8.43;;;0.70;73.10;;;;;;5053718;28;20047;-64
2023/03/02 05:21:30;;;;;;;16.15;8.38;;;0.70;73.20;;;;;;5049658;28;20586;-63
2023/03/02 05:23:57;;;;;;;14.45;7.65;;;0.70;73.00;;;;;;5052107;28;20055;-65
2023/03/02 05:26:24;;;;;;;16.05;7.47;;;0.70;73.10;;;;;;5052034;28;20056;-65
2023/03/02 05:28:51;;;;;;;16.45;8.70;;;0.60;73.30;;;;;;5053454;28;20051;-65
2023/03/02 05:31:23;;;;;;;16.02;8.23;;;0.60;73.40;;;;;;5047015;28;20045;-75
2023/03/02 05:33:50;;;;;;;17.08;8.05;;;0.50;73.60;;;;;;5050805;28;20041;-76
2023/03/02 05:36:17;;;;;;;17.50;8.40;;;0.50;73.60;;;;;;5046443;28;20098;-74
2023/03/02 05:38:44;;;;;;;15.10;8.10;;;0.50;73.70;;;;;;5053143;28;20131;-74
2023/03/02 05:41:11;;;;;;;18.98;8.65;;;0.50;73.80;;;;;;5046746;28;20519;-69
2023/03/02 05:43:38;;;;;;;17.45;8.95;;;0.50;73.80;;;;;;5051953;28;20051;-70
2023/03/02 05:46:05;;;;;;;16.35;8.13;;;0.40;73.90;;;;;;5052823;28;20517;-71
2023/03/02 05:48:33;;;;;;;17.80;8.70;;;0.50;74.00;;;;;;5049304;28;20086;-70
2023/03/02 05:51:00;;;;;;;18.10;8.43;;;0.40;73.90;;;;;;5052309;28;20060;-70
2023/03/02 05:53:29;;;;;;;17.23;8.68;;;0.40;74.00;;;;;;5043676;28;20051;-71
2023/03/02 05:55:56;;;;;;;18.48;8.80;;;0.30;74.30;;;;;;5043748;28;20060;-71
2023/03/02 05:58:22;;;;;;;17.33;8.38;;;0.30;74.50;;;;;;5048724;28;20048;-70
2023/03/02 06:00:50;;;;;;;18.02;7.90;;;0.40;74.70;;;;;;5044713;28;20053;-71
2023/03/02 06:03:17;;;;;;;19.42;8.55;;;0.40;74.80;;;;;;5054397;28;20044;-70
2023/03/02 06:05:49;;;;;;;18.65;8.35;;;0.40;74.80;;;;;;5052537;28;20396;-63
2023/03/02 06:08:16;;;;;;;19.27;8.32;;;0.40;74.60;;;;;;5053192;28;20045;-62
2023/03/02 06:10:43;;;;;;;16.63;7.90;;;0.40;74.70;;;;;;5051682;28;20047;-63
2023/03/02 06:13:10;;;;;;;16.45;8.60;;;0.40;74.70;;;;;;5057863;28;20052;-62
2023/03/02 06:15:39;;;;;;;18.30;8.30;;;0.40;74.70;;;;;;5061302;28;20045;-63
2023/03/02 06:18:06;;;;;;;17.73;7.72;;;0.30;74.70;;;;;;5052843;28;20051;-63
2023/03/02 06:20:33;;;;;;;15.00;8.48;;;0.40;74.60;;;;;;5048949;28;20048;-61
2023/03/02 06:23:01;;;;;;;17.33;9.50;;;0.40;74.60;;;;;;5057335;28;20045;-62
2023/03/02 06:25:29;;;;;;;20.13;8.98;;;0.40;74.70;;;;;;5054806;28;20077;-75
2023/03/02 06:27:56;;;;;;;18.10;9.25;;;0.40;74.80;;;;;;5059290;28;20059;-76
2023/03/02 06:30:26;;;;;;;17.38;8.95;;;0.30;74.90;;;;;;5056554;28;20047;-76
2023/03/02 06:32:54;;;;;;;20.10;8.57;;;0.30;75.20;;;;;;5055119;28;20049;-74
2023/03/02 06:35:22;;;;;;;16.70;8.68;;;0.30;75.10;;;;;;5055284;28;20048;-76
2023/03/02 06:37:50;;;;;;;18.67;8.55;;;0.30;75.10;;;;;;5056698;28;20511;-74
2023/03/02 06:40:20;;;;;;;17.80;8.45;;;0.30;75.20;;;;;;5054605;28;20042;-76
2023/03/02 06:42:47;;;;;;;17.30;7.93;;;0.30;75.20;;;;;;5056018;28;20165;-75
2023/03/02 06:45:14;;;;;;;18.85;9.25;;;0.40;74.90;;;;;;5058667;28;20071;-75
2023/03/02 06:47:41;;;;;;;17.67;9.38;;;0.50;74.70;;;;;;5056242;28;20050;-75
2023/03/02 06:50:09;;;;;;;16.27;8.05;;;0.50;74.60;;;;;;5056518;28;20044;-74
2023/03/02 06:52:36;;;;;;;22.33;8.35;;;0.50;74.60;;;;;;5056735;28;20059;-74
2023/03/02 06:55:04;;;;;;;21.17;8.65;;;0.60;74.30;;;;;;5056532;28;20063;-74
2023/03/02 06:57:33;;;;;;;15.05;7.38;;;0.70;74.20;;;;;;5057884;28;20098;-74
2023/03/02 07:00:01;;;;;;;16.42;8.07;;;0.60;74.30;;;;;;5054346;28;20051;-74
2023/03/02 07:02:28;;;;;;;17.42;8.63;;;0.50;74.70;;;;;;5057713;28;20033;-75
2023/03/02 07:04:55;;;;;;;16.75;8.60;;;0.60;74.80;;;;;;5056893;28;20048;-74
2023/03/02 07:07:22;;;;;;;14.00;7.50;;;0.60;74.70;;;;;;5056661;28;20057;-73
2023/03/02 07:09:49;;;;;;;16.73;8.05;;;0.60;74.50;;;;;;5050499;28;20040;-76
2023/03/02 07:12:16;;;;;;;18.08;9.02;;;0.70;74.50;;;;;;5057734;28;20120;-76
2023/03/02 07:14:44;;;;;;;18.67;8.20;;;0.70;74.40;;;;;;5058177;28;20041;-74
2023/03/02 07:17:11;;;;;;;17.92;8.55;;;0.80;74.30;;;;;;5054252;28;20090;-74
2023/03/02 07:19:38;;;;;;;17.90;8.85;;;0.80;74.40;;;;;;5058015;28;20057;-75
2023/03/02 07:22:05;;;;;;;19.92;9.07;;;0.80;74.20;;;;;;5056465;28;21585;-73
2023/03/02 07:24:32;;;;;;;18.70;10.05;;;0.80;74.10;;;;;;5057657;28;20049;-73
2023/03/02 07:26:59;;;;;;;18.83;8.80;;;0.90;74.00;;;;;;5050861;28;20053;-72
2023/03/02 07:29:26;;;;;;;17.30;8.43;;;0.90;73.90;;;;;;5058185;28;20538;-74
2023/03/02 07:31:56;;;;;;;16.90;8.45;;;0.90;73.90;;;;;;5057905;28;20056;-74
2023/03/02 07:34:23;;;;;;;17.30;9.23;;;1.00;73.90;;;;;;5038068;28;20048;-75
2023/03/02 07:36:51;;;;;;;17.08;8.82;;;1.00;73.80;;;;;;5039257;28;20050;-75
2023/03/02 07:39:18;;;;;;;15.50;7.88;;;1.00;73.70;;;;;;5055772;28;20488;-74
2023/03/02 07:41:45;;;;;;;16.65;8.18;;;1.10;73.60;;;;;;5053311;28;20060;-75
2023/03/02 07:44:13;;;;;;;16.73;8.50;;;1.10;73.50;;;;;;5055730;28;20040;-75
2023/03/02 07:46:40;;;;;;;17.40;8.25;;;1.10;73.40;;;;;;5055466;28;20045;-75
2023/03/02 07:49:08;;;;;;;16.98;8.10;;;1.20;73.30;;;;;;5050506;28;20057;-75
2023/03/02 07:51:35;;;;;;;17.27;8.38;;;1.20;73.20;;;;;;5051689;28;20064;-74
2023/03/02 07:54:03;;;;;;;16.50;8.02;;;1.20;73.10;;;;;;5055029;28;20049;-75
2023/03/02 07:56:30;;;;;;;16.85;8.07;;;1.20;73.10;;;;;;5056602;28;20063;-75
2023/03/02 07:58:57;;;;;;;16.48;8.02;;;1.20;72.80;;;;;;5055729;28;20056;-74
2023/03/02 08:01:24;;;;;;;15.98;7.85;;;1.30;72.90;;;;;;5053206;28;20049;-75
2023/03/02 08:03:51;;;;;;;18.83;8.27;;;1.30;72.70;;;;;;5054212;28;20060;-74
2023/03/02 08:06:19;;;;;;;15.32;8.45;;;1.40;72.60;;;;;;5050102;28;20048;-74
2023/03/02 08:08:46;;;;;;;17.67;7.95;;;1.40;72.60;;;;;;5055939;28;20071;-72
2023/03/02 08:11:15;;;;;;;18.45;8.65;;;1.40;72.60;;;;;;5053938;28;20041;-74
2023/03/02 08:13:43;;;;;;;15.55;8.85;;;1.50;72.80;;;;;;5056888;28;20040;-73
2023/03/02 08:16:12;;;;;;;16.27;8.15;;;1.60;72.80;;;;;;5051882;28;20052;-74
2023/03/02 08:18:40;;;;;;;15.40;7.85;;;1.60;72.60;;;;;;5050280;28;20051;-74
2023/03/02 08:21:12;;;;;;;16.55;7.85;;;1.70;72.50;;;;;;5051275;28;20075;-74
2023/03/02 08:23:41;;;;;;;15.90;7.93;;;1.70;72.50;;;;;;5056585;28;20057;-74
2023/03/02 08:26:08;;;;;;;17.42;8.52;;;1.70;72.40;;;;;;5056328;28;20041;-74
2023/03/02 08:28:35;;;;;;;17.70;8.48;;;1.80;72.60;;;;;;5053855;28;20199;-75
2023/03/02 08:31:04;;;;;;;15.75;8.20;;;2.00;72.40;;;;;;5055161;28;20057;-74
2023/03/02 08:33:31;;;;;;;15.57;7.90;;;2.00;72.20;;;;;;5053673;28;20052;-74
2023/03/02 08:36:00;;;;;;;15.95;8.23;;;2.10;71.70;;;;;;5055641;28;20045;-73
2023/03/02 08:38:32;;;;;;;17.35;8.57;;;2.20;71.20;;;;;;5049205;28;20053;-74
2023/03/02 08:41:03;;;;;;;14.45;7.95;;;2.30;71.20;;;;;;5054458;28;20041;-75
2023/03/02 08:43:31;;;;;;;15.90;8.25;;;2.40;70.80;;;;;;5055744;28;20059;-75
2023/03/02 08:45:59;;;;;;;17.15;8.38;;;2.50;70.70;;;;;;5054515;28;20044;-74
2023/03/02 08:48:27;;;;;;;16.17;8.50;;;2.60;70.50;;;;;;5041856;28;20052;-74
2023/03/02 08:50:55;;;;;;;15.98;8.55;;;2.70;70.50;;;;;;5057344;28;20064;-74
2023/03/02 08:53:22;;;;;;;16.65;8.52;;;2.80;69.90;;;;;;5055671;28;20414;-74
2023/03/02 08:55:49;;;;;;;18.70;8.70;;;3.00;69.90;;;;;;5050470;28;20044;-74
2023/03/02 08:58:18;;;;;;;15.77;8.18;;;3.10;69.70;;;;;;5055553;28;20049;-75
2023/03/02 09:00:45;;;;;;;17.15;9.23;;;3.20;69.40;;;;;;5054262;28;20063;-75
2023/03/02 09:03:12;;;;;;;15.98;7.78;;;3.30;69.20;;;;;;5056114;28;20041;-74
2023/03/02 09:05:39;;;;;;;16.10;8.07;;;3.40;68.90;;;;;;5048631;28;20483;-74
2023/03/02 09:08:07;;;;;;;16.83;8.73;;;3.60;68.60;;;;;;5050842;28;20437;-74
2023/03/02 09:10:34;;;;;;;16.63;8.25;;;3.60;68.60;;;;;;5052929;28;20521;-75
2023/03/02 09:13:01;;;;;;;18.02;8.95;;;3.70;68.30;;;;;;5055900;28;20037;-74
2023/03/02 09:15:29;;;;;;;14.00;7.35;;;3.80;67.80;;;;;;5050180;28;20088;-74
2023/03/02 09:17:56;;;;;;;19.88;8.65;;;4.00;67.90;;;;;;5045662;28;20060;-74
2023/03/02 09:20:23;;;;;;;15.93;8.63;;;4.10;68.00;;;;;;5053468;28;20052;-74
2023/03/02 09:22:50;;;;;;;18.05;9.20;;;4.20;68.00;;;;;;5053133;28;20037;-74
2023/03/02 09:25:20;;;;;;;17.52;8.02;;;4.30;67.80;;;;;;5054201;28;20052;-74
2023/03/02 09:27:48;;;;;;;15.43;8.20;;;4.40;67.30;;;;;;5054092;28;20127;-74
2023/03/02 09:30:15;;;;;;;17.05;8.27;;;4.50;66.80;;;;;;5050964;28;20048;-74
2023/03/02 09:32:44;;;;;;;16.40;8.45;;;4.60;66.70;;;;;;5054094;28;20098;-74
2023/03/02 09:35:11;;;;;;;17.05;8.38;;;4.70;66.70;;;;;;5049300;28;20403;-74
2023/03/02 09:37:38;;;;;;;16.67;8.98;;;4.70;66.60;;;;;;5048457;28;20120;-74
2023/03/02 09:40:12;;;;;;;14.75;7.60;;;4.80;66.60;;;;;;5053162;28;20126;-74
2023/03/02 09:43:20;;;;;;;19.27;8.10;;;5.00;66.20;;;;;;5047487;28;20455;-75
2023/03/02 09:45:55;;;;;;;17.40;7.93;;;5.20;66.00;;;;;;5032246;28;20088;-74
2023/03/02 09:48:35;;;;;;;14.63;7.50;;;5.20;65.40;;;;;;5054274;28;20055;-75
2023/03/02 09:51:07;;;;;;;;;;;5.40;64.60;;;;;;5049282;28;20127;-73
2023/03/02 09:53:44;;;;;;;15.48;7.43;;;5.60;64.30;;;;;;5051704;28;19920;-75
2023/03/02 09:56:15;;;;;;;17.08;8.25;;;5.70;63.90;;;;;;5050972;28;20084;-74
2023/03/02 09:58:48;;;;;;;14.25;7.55;;;5.80;63.80;;;;;;5053880;28;20053;-74
2023/03/02 10:01:22;;;;;;;16.17;7.70;;;5.80;63.70;;;;;;5054392;28;20049;-74
2023/03/02 10:06:36;;;;;;;14.82;8.30;;;6.00;63.60;;;;;;5049254;27;1959062;-74
2023/03/02 10:09:03;;;;;;;13.00;7.60;;;6.10;62.80;;;;;;5089878;28;20056;-74
2023/03/02 10:11:39;;;;;;;13.75;7.45;;;6.20;62.60;;;;;;5093123;28;20044;-74
2023/03/02 10:14:13;;;;;;;15.85;8.05;;;6.20;62.60;;;;;;5094411;28;20054;-74
2023/03/02 10:16:47;;;;;;;13.18;7.95;;;6.30;62.40;;;;;;5093900;28;20044;-75
2023/03/02 10:19:23;;;;;;;13.98;7.75;;;6.40;62.70;;;;;;5088474;28;20044;-72
2023/03/02 10:21:58;;;;;;;13.07;7.13;;;6.60;62.20;;;;;;5093200;28;20055;-74
2023/03/02 10:24:31;;;;;;;12.25;7.65;;;6.70;61.70;;;;;;5094364;28;20047;-74
2023/03/02 10:27:01;;;;;;;15.65;8.10;;;6.70;61.00;;;;;;5092963;28;20101;-63
2023/03/02 10:29:45;;;;;;;13.48;7.63;;;6.80;61.10;;;;;;5094394;28;20056;-62
2023/03/02 10:32:18;;;;;;;14.95;7.47;;;7.00;61.40;;;;;;5081662;28;20135;-63
2023/03/02 10:34:46;;;;;;;16.25;7.40;;;7.00;61.40;;;;;;5082027;28;20083;-63
2023/03/02 10:37:18;;;;;;;16.88;8.60;;;7.20;60.80;;;;;;5082584;28;20075;-66
2023/03/02 10:39:45;;;;;;;15.10;8.10;;;7.20;60.50;;;;;;5083599;28;20051;-66
2023/03/02 10:42:17;;;;;;;15.57;7.95;;;7.30;60.20;;;;;;5081077;28;20045;-65
2023/03/02 10:44:48;;;;;;;14.52;7.50;;;7.40;60.40;;;;;;5082928;28;20045;-66
2023/03/02 10:47:27;;;;;;;15.88;7.78;;;7.40;60.60;;;;;;5078526;28;20410;-67
2023/03/02 10:49:55;;;;;;;12.32;7.30;;;7.50;59.90;;;;;;5081411;28;20044;-66
2023/03/02 10:52:25;;;;;;;14.02;7.20;;;7.60;59.90;;;;;;5082197;28;20617;-65
2023/03/02 10:55:02;;;;;;;11.88;6.72;;;7.70;60.10;;;;;;5080601;28;20047;-66
2023/03/02 10:57:36;;;;;;;15.82;7.35;;;7.70;59.90;;;;;;5079445;28;20057;-74
2023/03/02 11:00:15;;;;;;;11.07;6.85;;;7.80;59.50;;;;;;5081162;28;20045;-74
2023/03/02 11:02:50;;;;;;;10.45;6.55;;;7.90;59.80;;;;;;5078760;28;20059;-73
2023/03/02 11:05:26;;;;;;;13.60;7.18;;;7.90;59.70;;;;;;5076961;28;20060;-73
2023/03/02 11:07:56;;;;;;;13.07;6.53;;;8.00;59.90;;;;;;5075728;28;20063;-74
2023/03/02 11:10:25;;;;;;;11.75;6.90;;;8.10;59.90;;;;;;5078191;28;20044;-74
2023/03/02 11:12:53;;;;;;;12.57;6.83;;;8.20;59.10;;;;;;5081282;28;20044;-74
2023/03/02 11:15:27;;;;;;;13.02;7.22;;;8.20;58.50;;;;;;5077597;28;20076;-73
2023/03/02 11:18:04;;;;;;;13.25;6.80;;;8.30;58.60;;;;;;5063559;28;20052;-74
2023/03/02 11:20:35;;;;;;;11.82;6.25;;;8.40;58.40;;;;;;5067593;28;20051;-73
2023/03/02 11:23:15;;;;;;;11.23;6.20;;;8.40;57.90;;;;;;5067339;28;20144;-73
2023/03/02 11:25:49;;;;;;;16.02;7.15;;;8.50;58.50;;;;;;5065387;28;20051;-74
2023/03/02 11:28:29;;;;;;;13.77;6.97;;;8.50;58.30;;;;;;5067164;28;20053;-74
2023/03/02 11:30:57;;;;;;;11.65;6.53;;;8.60;58.50;;;;;;5065007;28;20040;-69
2023/03/02 11:33:29;;;;;;;14.23;6.72;;;8.60;58.40;;;;;;5066404;28;20056;-69
2023/03/02 11:36:02;;;;;;;12.45;7.10;;;8.70;58.20;;;;;;5066228;28;20127;-68
2023/03/02 11:38:36;;;;;;;12.93;6.90;;;8.70;58.20;;;;;;5066135;28;20076;-69
2023/03/02 11:41:11;;;;;;;14.15;6.63;;;8.80;58.00;;;;;;5065403;28;20135;-69
2023/03/02 11:43:38;;;;;;;11.80;6.68;;;8.80;57.80;;;;;;5065898;28;20055;-67
2023/03/02 11:46:07;;;;;;;11.27;6.35;;;8.80;58.50;;;;;;5065618;28;20048;-68
2023/03/02 11:48:38;;;;;;;11.75;6.07;;;9.00;57.50;;;;;;5065835;28;20054;-69
2023/03/02 11:51:10;;;;;;;14.18;6.28;;;9.10;56.90;;;;;;5067773;28;20037;-68
2023/03/02 11:53:43;;;;;;;15.10;7.20;;;9.10;56.60;;;;;;5067893;28;20250;-69
2023/03/02 11:56:10;;;;;;;15.68;6.97;;;9.10;56.70;;;;;;5062611;28;20049;-65
2023/03/02 11:58:38;;;;;;;14.27;6.65;;;9.20;56.60;;;;;;5068216;28;20041;-64
2023/03/02 12:01:09;;;;;;;15.82;7.43;;;9.10;56.70;;;;;;5062845;28;20529;-65
2023/03/02 12:03:40;;;;;;;14.15;7.15;;;9.10;56.60;;;;;;5063104;28;20091;-65
2023/03/02 12:06:24;;;;;;;17.20;7.45;;;9.20;56.00;;;;;;5065469;28;20084;-66
2023/03/02 12:09:06;;;;;;;10.07;5.78;;;9.20;56.20;;;;;;5063391;28;20052;-65
2023/03/02 12:11:37;;;;;;;11.75;6.28;;;9.20;55.80;;;;;;5063916;28;20052;-65
2023/03/02 12:14:24;;;;;;;13.88;6.47;;;9.20;56.80;;;;;;5063437;28;20539;-65
2023/03/02 12:17:04;;;;;;;12.52;5.97;;;9.10;57.40;;;;;;5061507;28;20055;-65
2023/03/02 12:19:40;;;;;;;12.32;6.25;;;9.10;55.90;;;;;;5068036;28;20053;-65
2023/03/02 12:22:11;;;;;;;13.40;6.90;;;9.20;55.60;;;;;;5067385;28;20052;-63
2023/03/02 12:24:40;;;;;;;;;;;9.20;55.80;;;;;;5065432;28;20071;-63
2023/03/02 12:27:24;;;;;;;12.77;6.93;;;9.10;56.60;;;;;;5065902;28;19928;-63
2023/03/02 12:30:07;;;;;;;12.82;7.20;;;9.10;56.00;;;;;;5063946;28;20048;-63
2023/03/02 12:32:34;;;;;;;12.57;6.80;;;9.10;56.00;;;;;;5065790;28;20045;-64
2023/03/02 12:35:10;;;;;;;14.25;7.03;;;9.10;57.00;;;;;;5062789;28;20060;-64
2023/03/02 12:37:46;;;;;;;11.25;6.63;;;9.10;56.70;;;;;;5064949;28;20052;-65
2023/03/02 12:40:47;;;;;;;15.10;7.50;;;9.10;56.90;;;;;;5065414;28;20051;-65
2023/03/02 12:43:27;;;;;;;13.27;6.70;;;9.30;55.20;;;;;;5065112;28;20036;-64
2023/03/02 12:46:33;;;;;;;13.85;7.13;;;9.30;55.40;;;;;;5063808;28;20036;-65
2023/03/02 12:49:13;;;;;;;14.15;6.53;;;9.20;56.90;;;;;;5060333;28;20040;-64
2023/03/02 12:51:54;;;;;;;14.00;7.05;;;9.30;55.70;;;;;;5065915;28;20061;-65
2023/03/02 12:54:23;;;;;;;13.57;7.13;;;9.30;55.40;;;;;;5063223;28;20048;-66
2023/03/02 12:57:05;;;;;;;13.50;7.20;;;9.30;55.60;;;;;;5065675;28;20053;-66
2023/03/02 12:59:32;;;;;;;12.32;7.35;;;9.20;56.60;;;;;;5062807;28;20045;-65
2023/03/02 13:02:16;;;;;;;14.00;7.95;;;9.20;56.20;;;;;;5058898;28;20455;-66
2023/03/02 13:04:43;;;;;;;13.40;7.78;;;9.20;57.00;;;;;;5065652;28;20056;-66
2023/03/02 13:07:20;;;;;;;17.20;8.15;;;9.30;56.40;;;;;;5063324;28;20044;-73